Time;durP1;ratioP1;P1;durP2;ratioP2;P2;SDS_P1;SDS_P2;PMS_P1;PMS_P2;Temp;Humidity;BMP_temperature;BMP_pressure;BME280_temperature;BME280_humidity;BME280_pressure;Samples;Min_cycle;Max_cycle;Signal;HPM_P1;HPM_P2
2023/11/13 00:00:08;;;;;;;7.85;4.65;;;5.40;99.90;;;;;;7534977;19;20014;-71
2023/11/13 00:02:40;;;;;;;8.45;4.78;;;5.40;99.90;;;;;;7546647;19;22153;-71
2023/11/13 00:05:13;;;;;;;;;;;5.50;99.90;;;;;;7529868;19;20022;-71
2023/11/13 00:07:46;;;;;;;13.15;6.45;;;5.40;99.90;;;;;;7552396;19;19998;-71
2023/11/13 00:10:18;;;;;;;16.45;7.05;;;5.50;99.90;;;;;;7531134;19;20018;-71
2023/11/13 00:12:50;;;;;;;8.63;5.65;;;5.50;99.90;;;;;;7549816;19;20019;-71
2023/11/13 00:15:23;;;;;;;16.75;7.28;;;5.50;99.90;;;;;;7518078;19;20017;-71
2023/11/13 00:17:55;;;;;;;9.88;6.47;;;5.60;99.90;;;;;;7548263;19;20021;-71
2023/11/13 00:20:29;;;;;;;11.40;6.53;;;5.60;99.90;;;;;;7540076;19;21488;-71
2023/11/13 00:23:01;;;;;;;;;;;5.60;99.90;;;;;;7552112;19;20025;-71
2023/11/13 00:25:34;;;;;;;14.05;7.80;;;5.70;99.90;;;;;;7514256;19;19932;-72
2023/11/13 00:28:06;;;;;;;12.52;7.13;;;5.70;99.90;;;;;;7555256;19;20022;-72
2023/11/13 00:30:38;;;;;;;16.30;8.68;;;5.70;99.90;;;;;;7549360;19;20019;-72
2023/11/13 00:33:10;;;;;;;18.67;8.57;;;5.80;99.90;;;;;;7539973;19;20022;-72
2023/11/13 00:35:44;;;;;;;14.88;7.95;;;5.80;99.90;;;;;;7530805;19;20035;-72
2023/11/13 00:38:17;;;;;;;15.82;7.80;;;5.90;99.90;;;;;;7534166;19;20046;-72
2023/11/13 00:40:51;;;;;;;14.98;7.60;;;5.90;99.90;;;;;;7532402;19;20022;-72
2023/11/13 00:43:24;;;;;;;19.85;8.50;;;6.00;99.90;;;;;;7536501;19;20022;-72
2023/11/13 00:45:56;;;;;;;15.05;8.05;;;6.10;99.90;;;;;;7532123;19;20018;-72
2023/11/13 00:48:29;;;;;;;20.27;9.55;;;6.10;99.90;;;;;;7541216;19;20023;-72
2023/11/13 00:51:02;;;;;;;16.08;8.23;;;6.10;99.90;;;;;;7550767;19;21887;-72
2023/11/13 00:53:38;;;;;;;18.85;9.68;;;6.20;99.90;;;;;;7524314;19;20041;-73
2023/11/13 00:56:11;;;;;;;21.75;9.52;;;6.20;99.90;;;;;;7507629;19;20038;-72
2023/11/13 00:58:43;;;;;;;29.67;10.75;;;6.20;99.90;;;;;;7543805;19;20129;-72
2023/11/13 01:01:16;;;;;;;14.80;8.80;;;6.20;99.90;;;;;;7517350;19;20098;-72
2023/11/13 01:03:49;;;;;;;14.38;8.30;;;6.20;99.90;;;;;;7543641;19;20014;-72
2023/11/13 01:06:23;;;;;;;14.48;7.95;;;6.20;99.90;;;;;;7536666;19;20688;-72
2023/11/13 01:08:55;;;;;;;13.45;7.57;;;6.30;99.90;;;;;;7520817;19;20069;-72
2023/11/13 01:11:28;;;;;;;29.38;11.25;;;6.40;99.90;;;;;;7519733;19;20018;-72
2023/11/13 01:14:01;;;;;;;16.73;9.27;;;6.30;99.90;;;;;;7546425;19;20393;-72
2023/11/13 01:16:33;;;;;;;20.58;10.50;;;6.40;99.90;;;;;;7532748;19;20021;-72
2023/11/13 01:19:05;;;;;;;24.45;11.10;;;6.40;99.90;;;;;;7522088;19;20052;-72
2023/11/13 01:21:38;;;;;;;19.77;10.43;;;6.50;99.90;;;;;;7532093;19;20026;-72
2023/11/13 01:24:10;;;;;;;16.33;9.40;;;6.50;99.90;;;;;;7511593;19;21597;-72
2023/11/13 01:26:43;;;;;;;23.95;9.45;;;6.50;99.90;;;;;;7516766;19;20105;-71
2023/11/13 01:29:15;;;;;;;25.55;11.15;;;6.40;99.90;;;;;;7536581;19;20015;-71
2023/11/13 01:31:48;;;;;;;19.45;9.93;;;6.40;99.90;;;;;;7517110;19;20101;-72
2023/11/13 01:34:21;;;;;;;24.02;11.65;;;6.40;99.90;;;;;;7536268;19;20014;-72
2023/11/13 01:36:54;;;;;;;27.08;11.70;;;6.40;99.90;;;;;;7551545;19;20030;-71
2023/11/13 01:39:26;;;;;;;20.58;10.63;;;6.40;99.90;;;;;;7511837;19;20014;-71
2023/11/13 01:41:58;;;;;;;17.23;9.90;;;6.40;99.90;;;;;;7539477;19;20053;-72
2023/11/13 01:44:31;;;;;;;17.52;9.50;;;6.50;99.90;;;;;;7502675;19;20676;-71
2023/11/13 01:47:05;;;;;;;15.18;9.45;;;6.50;99.90;;;;;;7534490;19;20472;-72
2023/11/13 01:49:38;;;;;;;18.52;9.43;;;6.50;99.90;;;;;;7529107;19;21841;-72
2023/11/13 01:52:12;;;;;;;23.53;10.70;;;6.60;99.90;;;;;;7537469;19;20024;-72
2023/11/13 01:54:45;;;;;;;24.08;10.38;;;6.60;99.90;;;;;;7510276;19;20102;-71
2023/11/13 01:57:18;;;;;;;19.10;9.15;;;6.70;99.90;;;;;;7544876;19;20018;-71
2023/11/13 01:59:53;;;;;;;14.77;8.97;;;6.60;99.90;;;;;;7533398;19;20017;-71
2023/11/13 02:02:26;;;;;;;20.50;9.27;;;6.60;99.90;;;;;;7512595;19;20524;-71
2023/11/13 02:04:58;;;;;;;24.38;10.43;;;6.60;99.90;;;;;;7529250;19;20495;-71
2023/11/13 02:07:30;;;;;;;27.77;11.38;;;6.70;99.90;;;;;;7487605;19;20638;-71
2023/11/13 02:10:04;;;;;;;19.50;9.32;;;6.60;99.90;;;;;;7494700;19;20480;-71
2023/11/13 02:12:37;;;;;;;23.75;11.13;;;6.60;99.90;;;;;;7473209;19;20365;-71
2023/11/13 02:15:10;;;;;;;22.63;11.25;;;6.60;99.90;;;;;;7532775;19;21023;-71
2023/11/13 02:18:00;;;;;;;28.02;12.68;;;6.60;99.90;;;;;;7504145;19;21355;-71
2023/11/13 02:20:32;;;;;;;32.42;13.25;;;6.60;99.90;;;;;;7521936;19;20033;-72
2023/11/13 02:23:06;;;;;;;29.65;13.23;;;6.60;99.90;;;;;;7541278;19;21576;-72
2023/11/13 02:25:39;;;;;;;22.50;12.27;;;6.60;99.90;;;;;;7499547;19;20018;-72
2023/11/13 02:28:11;;;;;;;27.58;13.27;;;6.60;99.90;;;;;;7536043;19;20046;-72
2023/11/13 02:30:43;;;;;;;29.30;13.25;;;6.60;99.90;;;;;;7501331;19;20010;-73
2023/11/13 02:33:17;;;;;;;24.42;12.93;;;6.60;99.90;;;;;;7533360;19;21632;-72
2023/11/13 02:35:49;;;;;;;24.55;11.93;;;6.60;99.90;;;;;;7512128;19;20064;-72
2023/11/13 02:38:22;;;;;;;22.60;11.75;;;6.60;99.90;;;;;;7538846;19;20011;-70
2023/11/13 02:40:56;;;;;;;37.30;14.02;;;6.60;99.90;;;;;;7528107;19;20057;-72
2023/11/13 02:43:28;;;;;;;24.58;12.68;;;6.60;99.90;;;;;;7535312;19;20089;-72
2023/11/13 02:46:01;;;;;;;26.55;11.75;;;6.70;99.90;;;;;;7534987;19;20022;-72
2023/11/13 02:48:33;;;;;;;19.77;10.88;;;6.70;99.90;;;;;;7533675;19;20015;-72
2023/11/13 02:51:05;;;;;;;19.35;11.52;;;6.70;99.90;;;;;;7521705;19;21712;-72
2023/11/13 02:53:37;;;;;;;19.27;10.13;;;6.70;99.90;;;;;;7519341;19;20014;-72
2023/11/13 02:56:11;;;;;;;30.90;13.10;;;6.80;99.90;;;;;;7531269;19;20023;-72
2023/11/13 02:58:44;;;;;;;43.10;15.70;;;6.80;99.90;;;;;;7520243;19;20739;-71
2023/11/13 03:01:17;;;;;;;17.13;9.97;;;6.80;99.90;;;;;;7545663;19;20014;-72
2023/11/13 03:03:50;;;;;;;19.85;9.15;;;6.80;99.90;;;;;;7520715;19;21961;-72
2023/11/13 03:06:22;;;;;;;24.13;10.95;;;6.90;99.90;;;;;;7517326;19;20022;-71
2023/11/13 03:08:54;;;;;;;22.83;10.05;;;6.90;99.90;;;;;;7530224;19;20015;-71
2023/11/13 03:11:26;;;;;;;18.60;8.25;;;6.90;99.90;;;;;;7519545;19;20023;-71
2023/11/13 03:13:59;;;;;;;14.48;7.57;;;7.00;99.90;;;;;;7539547;19;20928;-71
2023/11/13 03:16:32;;;;;;;15.35;7.47;;;7.00;99.90;;;;;;7525487;19;20477;-72
2023/11/13 03:19:04;;;;;;;20.25;8.88;;;7.10;99.90;;;;;;7535575;19;20625;-71
2023/11/13 03:21:36;;;;;;;15.25;7.43;;;7.10;99.90;;;;;;7505648;19;20038;-71
2023/11/13 03:24:10;;;;;;;18.67;7.68;;;7.10;99.90;;;;;;7518598;19;20064;-71
2023/11/13 03:26:42;;;;;;;10.52;6.22;;;7.10;99.90;;;;;;7466711;19;20006;-71
2023/11/13 03:29:14;;;;;;;12.57;7.32;;;7.20;99.90;;;;;;7514380;19;20057;-71
2023/11/13 03:31:47;;;;;;;11.70;6.75;;;7.20;99.90;;;;;;7501206;19;20014;-71
2023/11/13 03:34:20;;;;;;;14.43;6.13;;;7.20;99.90;;;;;;7526939;19;20019;-71
2023/11/13 03:36:52;;;;;;;9.32;5.97;;;7.20;99.90;;;;;;7518976;19;20014;-71
2023/11/13 03:39:25;;;;;;;13.65;6.13;;;7.30;99.90;;;;;;7521826;19;20022;-71
2023/11/13 03:41:58;;;;;;;16.60;6.20;;;7.30;99.90;;;;;;7519460;19;20026;-72
2023/11/13 03:44:30;;;;;;;12.15;5.60;;;7.30;99.90;;;;;;7541065;19;21704;-71
2023/11/13 03:47:03;;;;;;;22.50;9.65;;;7.30;99.90;;;;;;7524657;19;20060;-71
2023/11/13 03:49:36;;;;;;;17.30;7.25;;;7.30;99.90;;;;;;7532590;19;20026;-71
2023/11/13 03:52:13;;;;;;;10.45;6.15;;;7.30;99.90;;;;;;7532757;19;20018;-71
2023/11/13 03:54:46;;;;;;;12.75;6.55;;;7.30;99.90;;;;;;7509676;19;21907;-71
2023/11/13 03:57:18;;;;;;;12.45;6.28;;;7.30;99.90;;;;;;7527046;19;20022;-71
2023/11/13 03:59:51;;;;;;;14.30;6.22;;;7.30;99.90;;;;;;7533849;19;21328;-71
2023/11/13 04:02:23;;;;;;;12.82;6.15;;;7.30;99.90;;;;;;7503319;19;20855;-71
2023/11/13 04:04:56;;;;;;;23.02;8.20;;;7.30;99.90;;;;;;7523888;19;20061;-72
2023/11/13 04:07:28;;;;;;;30.65;9.63;;;7.40;99.90;;;;;;7545979;19;20031;-72
2023/11/13 04:10:00;;;;;;;12.02;6.05;;;7.40;99.90;;;;;;7489963;19;20094;-71
2023/11/13 04:12:33;;;;;;;10.90;5.45;;;7.40;99.90;;;;;;7512032;19;20023;-72
2023/11/13 04:15:07;;;;;;;8.80;5.30;;;7.40;99.90;;;;;;7530187;19;20579;-72
2023/11/13 04:17:40;;;;;;;11.95;5.80;;;7.50;99.90;;;;;;7537482;19;20025;-72
2023/11/13 04:20:12;;;;;;;10.77;6.03;;;7.40;99.90;;;;;;7530319;19;21229;-72
2023/11/13 04:22:45;;;;;;;26.33;7.85;;;7.40;99.90;;;;;;7550731;19;21520;-72
2023/11/13 04:25:18;;;;;;;11.05;4.03;;;7.50;99.90;;;;;;7527709;19;20530;-72
2023/11/13 04:27:50;;;;;;;6.70;3.33;;;7.60;99.90;;;;;;7502996;19;20042;-73
2023/11/13 04:30:23;;;;;;;7.32;3.38;;;7.60;99.90;;;;;;7500000;19;20790;-73
2023/11/13 04:32:55;;;;;;;8.35;3.28;;;7.70;99.90;;;;;;7471323;19;20022;-72
2023/11/13 04:35:27;;;;;;;8.82;4.03;;;7.70;99.90;;;;;;7492590;19;20021;-70
2023/11/13 04:37:59;;;;;;;6.57;3.78;;;7.80;99.90;;;;;;7519888;19;20017;-70
2023/11/13 04:40:32;;;;;;;6.57;3.55;;;7.80;99.90;;;;;;7516887;19;20020;-71
2023/11/13 04:43:06;;;;;;;;;;;7.90;99.90;;;;;;7522025;19;20014;-71
2023/11/13 04:45:39;;;;;;;8.00;2.70;;;7.90;99.90;;;;;;7506292;19;20957;-73
2023/11/13 04:48:11;;;;;;;7.72;2.58;;;8.00;99.90;;;;;;7509856;19;20022;-70
2023/11/13 04:50:44;;;;;;;3.42;1.88;;;8.20;99.90;;;;;;7513840;19;20048;-73
2023/11/13 04:53:17;;;;;;;8.35;2.17;;;8.30;99.90;;;;;;7518401;19;20014;-73
2023/11/13 04:55:50;;;;;;;6.18;1.80;;;8.30;99.90;;;;;;7485136;19;20536;-73
2023/11/13 04:58:22;;;;;;;5.95;2.20;;;8.50;99.90;;;;;;7517282;19;21400;-73
2023/11/13 05:00:55;;;;;;;5.82;2.00;;;8.40;99.90;;;;;;7515381;19;20342;-73
2023/11/13 05:03:27;;;;;;;15.27;2.60;;;8.50;99.90;;;;;;7506866;19;20032;-73
2023/11/13 05:05:59;;;;;;;13.02;2.80;;;8.50;99.90;;;;;;7507924;19;20603;-73
2023/11/13 05:08:32;;;;;;;15.73;3.45;;;8.50;99.90;;;;;;7481313;19;20023;-71
2023/11/13 05:11:06;;;;;;;11.53;2.87;;;8.60;99.90;;;;;;7512712;19;20280;-73
2023/11/13 05:13:38;;;;;;;16.10;3.17;;;8.60;99.90;;;;;;7478342;19;20535;-73
2023/11/13 05:16:19;;;;;;;16.45;3.47;;;8.70;99.90;;;;;;7489542;19;20679;-73
2023/11/13 05:18:52;;;;;;;15.18;3.42;;;8.80;99.90;;;;;;7510622;19;20018;-73
2023/11/13 05:21:25;;;;;;;26.20;3.90;;;8.80;99.90;;;;;;7514653;19;20029;-73
2023/11/13 05:23:58;;;;;;;15.68;3.47;;;8.90;99.90;;;;;;7515491;19;20014;-73
2023/11/13 05:26:30;;;;;;;14.80;4.40;;;8.90;99.90;;;;;;7469414;19;20544;-73
2023/11/13 05:29:03;;;;;;;16.30;3.92;;;8.90;99.90;;;;;;7482065;19;20902;-73
2023/11/13 05:31:35;;;;;;;11.43;3.15;;;9.00;99.90;;;;;;7457649;19;21523;-73
2023/11/13 05:34:08;;;;;;;12.38;3.03;;;9.00;99.90;;;;;;7494493;19;20018;-73
2023/11/13 05:36:40;;;;;;;21.30;3.55;;;9.10;99.90;;;;;;7451521;19;20034;-73
2023/11/13 05:39:13;;;;;;;8.93;2.95;;;9.10;99.90;;;;;;7468373;19;20018;-73
2023/11/13 05:41:45;;;;;;;9.52;2.33;;;9.20;99.90;;;;;;7458628;19;25763;-73
2023/11/13 05:44:17;;;;;;;13.48;2.85;;;9.30;99.90;;;;;;7469981;19;20060;-73
2023/11/13 05:46:50;;;;;;;11.82;1.90;;;9.50;99.90;;;;;;7415600;19;21614;-74
2023/11/13 05:49:22;;;;;;;16.23;1.85;;;9.60;99.90;;;;;;7467596;19;20015;-73
2023/11/13 05:51:55;;;;;;;12.05;2.33;;;9.60;99.90;;;;;;7471939;19;20022;-73
2023/11/13 05:54:27;;;;;;;14.63;4.47;;;9.60;99.90;;;;;;7462211;19;20658;-73
2023/11/13 05:57:00;;;;;;;23.73;6.70;;;9.60;99.90;;;;;;7443377;19;20022;-73
2023/11/13 05:59:33;;;;;;;24.35;7.82;;;9.60;99.90;;;;;;7469735;19;20018;-74
2023/11/13 06:02:06;;;;;;;13.40;5.03;;;9.60;99.90;;;;;;7433452;19;20019;-73
2023/11/13 06:04:43;;;;;;;10.70;3.22;;;9.70;99.90;;;;;;7454304;19;20014;-73
2023/11/13 06:07:15;;;;;;;10.57;3.05;;;9.60;99.90;;;;;;7488046;19;21840;-73
2023/11/13 06:09:48;;;;;;;7.07;2.55;;;9.70;99.90;;;;;;7443001;19;21100;-73
2023/11/13 06:12:20;;;;;;;9.68;3.72;;;9.70;99.90;;;;;;7468188;19;20021;-72
2023/11/13 06:14:52;;;;;;;5.15;2.60;;;9.80;99.90;;;;;;7440728;19;20014;-72
2023/11/13 06:17:25;;;;;;;16.30;4.00;;;9.80;99.90;;;;;;7428943;19;20022;-73
2023/11/13 06:19:58;;;;;;;13.05;3.00;;;9.80;99.90;;;;;;7462297;19;20302;-73
2023/11/13 06:22:30;;;;;;;16.13;2.60;;;9.80;99.90;;;;;;7495046;19;20107;-74
2023/11/13 06:25:04;;;;;;;7.18;2.00;;;9.70;99.90;;;;;;7465236;19;20015;-74
2023/11/13 06:27:37;;;;;;;14.20;2.85;;;9.70;99.90;;;;;;7449588;19;20022;-74
2023/11/13 06:30:10;;;;;;;11.45;2.88;;;9.70;99.90;;;;;;7484630;19;20136;-74
2023/11/13 06:32:43;;;;;;;10.15;2.40;;;9.80;99.90;;;;;;7506204;19;20036;-74
2023/11/13 06:35:16;;;;;;;7.87;1.93;;;9.80;99.90;;;;;;7530517;19;20014;-74
2023/11/13 06:37:48;;;;;;;7.37;2.20;;;9.80;99.90;;;;;;7496887;19;20014;-73
2023/11/13 06:40:21;;;;;;;8.90;2.58;;;9.80;99.90;;;;;;7424018;19;20291;-73
2023/11/13 06:42:54;;;;;;;13.55;2.17;;;9.90;99.90;;;;;;7307581;19;20023;-73
2023/11/13 06:45:26;;;;;;;6.32;2.00;;;9.90;99.90;;;;;;7273128;19;21800;-73
2023/11/13 06:48:00;;;;;;;8.93;2.10;;;9.90;99.90;;;;;;7267427;19;20453;-73
2023/11/13 06:50:33;;;;;;;;;;;9.90;99.90;;;;;;7286456;19;20021;-73
2023/11/13 06:53:05;;;;;;;7.22;1.55;;;10.00;99.90;;;;;;7358786;19;21106;-73
2023/11/13 06:55:38;;;;;;;11.02;2.15;;;10.00;99.90;;;;;;7359512;19;20015;-73
2023/11/13 06:58:11;;;;;;;5.80;1.38;;;10.00;99.90;;;;;;7418393;19;20029;-73
2023/11/13 07:00:44;;;;;;;7.95;1.95;;;10.10;99.90;;;;;;7390564;19;21449;-73
2023/11/13 07:03:17;;;;;;;10.05;2.15;;;10.10;99.90;;;;;;7376504;19;21173;-72
2023/11/13 07:05:50;;;;;;;;;;;10.20;99.90;;;;;;7403460;19;20018;-72
2023/11/13 07:08:23;;;;;;;4.50;1.27;;;10.20;99.90;;;;;;7449829;19;21114;-72
2023/11/13 07:10:55;;;;;;;6.18;1.50;;;10.20;99.90;;;;;;7412071;19;20018;-73
2023/11/13 07:13:29;;;;;;;5.43;1.77;;;10.20;99.90;;;;;;7388305;19;20109;-73
2023/11/13 07:16:03;;;;;;;7.82;1.85;;;10.30;99.90;;;;;;7307279;19;20015;-71
2023/11/13 07:18:35;;;;;;;7.40;1.67;;;10.30;99.90;;;;;;7325874;19;20010;-73
2023/11/13 07:21:07;;;;;;;5.13;1.38;;;10.20;99.90;;;;;;7410194;19;20342;-72
2023/11/13 07:23:40;;;;;;;7.78;1.48;;;10.40;99.90;;;;;;7416518;19;20249;-72
2023/11/13 07:26:12;;;;;;;7.55;1.67;;;10.30;99.90;;;;;;7403032;19;20014;-72
2023/11/13 07:28:45;;;;;;;2.15;1.08;;;10.30;99.90;;;;;;7358737;19;20034;-71
2023/11/13 07:31:19;;;;;;;3.10;1.50;;;10.40;99.90;;;;;;7354392;19;20018;-74
2023/11/13 07:33:53;;;;;;;4.60;1.45;;;10.40;99.90;;;;;;7269072;19;24983;-75
2023/11/13 07:36:26;;;;;;;9.63;1.45;;;10.40;99.90;;;;;;7356577;19;21112;-73
2023/11/13 07:38:59;;;;;;;7.72;1.50;;;10.40;99.90;;;;;;7383528;19;20010;-73
2023/11/13 07:41:33;;;;;;;4.57;1.90;;;10.30;99.90;;;;;;7305628;19;20022;-73
2023/11/13 07:44:05;;;;;;;;;;;10.30;99.90;;;;;;7343817;19;20317;-71
2023/11/13 07:46:37;;;;;;;4.18;1.10;;;10.30;99.90;;;;;;7337117;19;20286;-74
2023/11/13 07:49:11;;;;;;;6.13;1.35;;;10.40;99.90;;;;;;7381119;19;20404;-73
2023/11/13 07:51:45;;;;;;;3.38;1.00;;;10.30;99.90;;;;;;7357701;19;20014;-73
2023/11/13 07:54:18;;;;;;;5.10;1.00;;;10.40;99.90;;;;;;7333438;19;20102;-74
2023/11/13 07:56:51;;;;;;;4.88;1.10;;;10.40;99.90;;;;;;7314294;19;20018;-71
2023/11/13 07:59:24;;;;;;;2.67;1.20;;;10.40;99.90;;;;;;7303858;19;20018;-71
2023/11/13 08:01:56;;;;;;;4.10;1.13;;;10.40;99.90;;;;;;7317887;19;20022;-73
2023/11/13 08:04:29;;;;;;;2.92;0.90;;;10.40;99.90;;;;;;7293989;19;24465;-72
2023/11/13 08:07:02;;;;;;;3.45;1.08;;;10.30;99.90;;;;;;7262305;19;20437;-73
2023/11/13 08:09:48;;;;;;;2.72;1.02;;;10.30;99.90;;;;;;7277770;19;20014;-73
2023/11/13 08:12:20;;;;;;;3.05;0.93;;;10.20;99.90;;;;;;7326017;19;20041;-72
2023/11/13 08:14:53;;;;;;;1.80;1.00;;;10.30;99.90;;;;;;7335875;19;20678;-73
2023/11/13 08:17:26;;;;;;;2.35;0.70;;;10.40;99.90;;;;;;7293825;19;20011;-72
2023/11/13 08:20:01;;;;;;;5.32;0.80;;;10.30;99.90;;;;;;7325555;19;20014;-72
2023/11/13 08:22:35;;;;;;;5.30;0.88;;;10.30;99.90;;;;;;7329656;19;20839;-73
2023/11/13 08:25:11;;;;;;;2.83;0.95;;;10.40;99.90;;;;;;7395748;19;20035;-73
2023/11/13 08:27:46;;;;;;;1.52;0.88;;;10.30;99.90;;;;;;7298928;19;20021;-73
2023/11/13 08:30:22;;;;;;;2.05;0.88;;;10.20;99.90;;;;;;7300391;19;20589;-72
2023/11/13 08:32:56;;;;;;;1.65;1.00;;;10.30;99.90;;;;;;7260751;19;20643;-72
2023/11/13 08:35:31;;;;;;;3.80;0.88;;;10.30;99.90;;;;;;7354373;19;20899;-72
2023/11/13 08:38:03;;;;;;;3.38;0.90;;;10.30;99.90;;;;;;7481535;19;21290;-72
2023/11/13 08:40:36;;;;;;;4.75;1.00;;;10.30;99.90;;;;;;7451010;19;20019;-72
2023/11/13 08:43:10;;;;;;;1.85;1.02;;;10.20;99.90;;;;;;7459221;19;20540;-72
2023/11/13 08:45:44;;;;;;;1.35;0.90;;;10.20;99.90;;;;;;7442771;19;20090;-73
2023/11/13 08:48:31;;;;;;;0.82;0.45;;;10.20;99.90;;;;;;7465969;19;20010;-72
2023/11/13 08:51:07;;;;;;;2.53;0.90;;;10.10;99.90;;;;;;7483287;19;20074;-73
2023/11/13 08:53:42;;;;;;;4.95;1.13;;;10.10;99.90;;;;;;7459337;19;20019;-75
2023/11/13 08:56:15;;;;;;;2.42;1.00;;;9.90;99.90;;;;;;7430651;19;20647;-78
2023/11/13 08:58:47;;;;;;;3.58;1.60;;;9.90;99.90;;;;;;7474458;19;20042;-73
2023/11/13 09:01:25;;;;;;;4.38;1.20;;;9.80;99.90;;;;;;7466149;19;20014;-72
2023/11/13 09:03:59;;;;;;;2.03;1.08;;;9.70;99.90;;;;;;7441275;19;20025;-71
2023/11/13 09:06:36;;;;;;;7.22;1.50;;;9.60;99.90;;;;;;7476997;19;20014;-73
2023/11/13 09:09:12;;;;;;;4.47;1.23;;;9.60;99.90;;;;;;7509368;19;20627;-71
2023/11/13 09:11:47;;;;;;;5.88;2.88;;;9.60;99.90;;;;;;7496180;19;20022;-74
2023/11/13 09:14:22;;;;;;;6.60;2.47;;;9.60;99.90;;;;;;7451543;19;20025;-73
2023/11/13 09:16:55;;;;;;;3.67;1.63;;;9.60;99.90;;;;;;7461159;19;22394;-72
2023/11/13 09:19:28;;;;;;;5.10;1.37;;;9.60;99.90;;;;;;7418801;19;20010;-73
2023/11/13 09:22:03;;;;;;;4.28;1.40;;;9.60;99.90;;;;;;7471725;19;20018;-73
2023/11/13 09:24:39;;;;;;;4.28;2.05;;;9.70;99.90;;;;;;7488059;19;21565;-73
2023/11/13 09:27:12;;;;;;;4.40;1.70;;;9.70;99.90;;;;;;7463897;19;20041;-73
2023/11/13 09:29:46;;;;;;;4.03;1.77;;;9.70;99.90;;;;;;7451804;19;20018;-73
2023/11/13 09:32:21;;;;;;;6.18;2.03;;;9.70;99.90;;;;;;7475118;19;20024;-73
2023/11/13 09:34:58;;;;;;;7.90;1.80;;;9.80;99.90;;;;;;7432642;19;20015;-73
2023/11/13 09:37:31;;;;;;;5.57;2.42;;;9.80;99.90;;;;;;7461657;19;20010;-73
2023/11/13 09:40:03;;;;;;;7.18;3.10;;;9.80;99.90;;;;;;7443819;19;21534;-73
2023/11/13 09:42:36;;;;;;;7.83;4.23;;;9.90;99.90;;;;;;7456797;19;20022;-73
2023/11/13 09:45:09;;;;;;;7.83;3.27;;;9.80;99.90;;;;;;7444023;19;20836;-73
2023/11/13 09:47:45;;;;;;;15.27;7.47;;;9.90;99.90;;;;;;7456482;19;20271;-73
2023/11/13 09:50:19;;;;;;;5.97;3.70;;;9.90;99.90;;;;;;7485783;19;20023;-73
2023/11/13 09:52:57;;;;;;;4.30;2.08;;;9.90;99.90;;;;;;7487700;19;21047;-73
2023/11/13 09:55:38;;;;;;;7.18;3.28;;;10.00;99.90;;;;;;7493034;19;20021;-74
2023/11/13 09:58:14;;;;;;;6.82;3.42;;;9.90;99.90;;;;;;7511220;19;20018;-74
2023/11/13 10:00:47;;;;;;;12.88;4.60;;;9.90;99.90;;;;;;7499663;19;20038;-74
2023/11/13 10:03:19;;;;;;;5.10;3.30;;;9.90;99.90;;;;;;7500819;19;20131;-73
2023/11/13 10:05:51;;;;;;;5.30;1.92;;;9.90;99.90;;;;;;7498630;19;20106;-73
2023/11/13 10:08:25;;;;;;;5.47;2.60;;;9.90;99.90;;;;;;7516402;19;20025;-73
2023/11/13 10:10:57;;;;;;;4.55;2.38;;;9.90;99.90;;;;;;7528088;19;20018;-73
2023/11/13 10:13:32;;;;;;;3.75;1.92;;;10.00;99.90;;;;;;7512422;19;20018;-74
2023/11/13 10:16:27;;;;;;;8.13;3.60;;;10.00;99.90;;;;;;7500443;19;20025;-74
2023/11/13 10:19:14;;;;;;;3.03;1.60;;;9.90;99.90;;;;;;7521647;19;20019;-74
2023/11/13 10:21:47;;;;;;;4.05;2.10;;;9.90;99.90;;;;;;7514017;19;20006;-74
2023/11/13 10:24:25;;;;;;;2.00;1.00;;;9.90;99.90;;;;;;7520660;19;20501;-73
2023/11/13 10:27:13;;;;;;;2.40;1.27;;;10.00;99.90;;;;;;7518190;19;20045;-73
2023/11/13 10:29:46;;;;;;;1.83;1.02;;;9.90;99.90;;;;;;7496829;19;20018;-73
2023/11/13 10:32:32;;;;;;;3.47;1.35;;;9.90;99.90;;;;;;7528179;19;20007;-73
2023/11/13 10:35:09;;;;;;;3.65;1.52;;;9.90;99.90;;;;;;7546385;19;20026;-73
2023/11/13 10:37:56;;;;;;;2.08;1.55;;;9.90;99.90;;;;;;7531138;19;20094;-73
2023/11/13 10:40:30;;;;;;;2.35;1.52;;;9.80;99.90;;;;;;7536806;19;20021;-73
2023/11/13 10:43:04;;;;;;;4.38;1.33;;;9.80;99.90;;;;;;7562450;19;21154;-73
2023/11/13 10:45:46;;;;;;;2.70;1.90;;;9.80;99.90;;;;;;7493591;19;20021;-73
2023/11/13 10:48:42;;;;;;;2.72;1.30;;;9.80;99.90;;;;;;7525675;19;20815;-72
2023/11/13 10:51:16;;;;;;;8.43;1.80;;;9.90;99.90;;;;;;7548703;19;20022;-72
2023/11/13 10:53:54;;;;;;;2.92;1.48;;;9.90;99.90;;;;;;7534276;19;22099;-72
2023/11/13 10:56:26;;;;;;;2.08;1.55;;;10.00;99.90;;;;;;7551619;19;20113;-71
2023/11/13 10:58:59;;;;;;;6.95;2.15;;;10.00;99.90;;;;;;7542972;19;20034;-72
2023/11/13 11:01:33;;;;;;;2.97;1.67;;;10.10;99.90;;;;;;7510609;19;20015;-71
2023/11/13 11:04:06;;;;;;;1.50;1.20;;;10.10;99.90;;;;;;7536477;19;20878;-71
2023/11/13 11:06:41;;;;;;;3.00;1.47;;;10.10;99.90;;;;;;7487119;19;20094;-72
2023/11/13 11:09:17;;;;;;;3.25;1.00;;;10.20;99.90;;;;;;7523610;19;20751;-72
2023/11/13 11:11:51;;;;;;;2.95;1.30;;;10.30;99.90;;;;;;7499805;19;20390;-72
2023/11/13 11:14:43;;;;;;;3.90;1.50;;;10.30;99.90;;;;;;7521305;19;20054;-71
2023/11/13 11:17:27;;;;;;;2.88;1.30;;;10.40;99.90;;;;;;7531248;19;20051;-72
2023/11/13 11:20:08;;;;;;;3.08;1.30;;;10.50;99.90;;;;;;7548523;19;20078;-71
2023/11/13 11:22:48;;;;;;;4.70;1.70;;;10.50;99.90;;;;;;7542017;19;20011;-71
2023/11/13 11:25:52;;;;;;;4.72;2.05;;;10.50;99.90;;;;;;7534193;19;20125;-72
2023/11/13 11:28:45;;;;;;;5.05;2.05;;;10.60;99.90;;;;;;7504013;19;20078;-72
2023/11/13 11:31:30;;;;;;;5.93;1.80;;;10.60;99.90;;;;;;7527604;19;20042;-71
2023/11/13 11:34:02;;;;;;;4.35;1.60;;;10.70;99.90;;;;;;7563582;19;20025;-71
2023/11/13 11:36:40;;;;;;;;;;;10.70;99.90;;;;;;7514043;19;20014;-71
2023/11/13 11:39:18;;;;;;;2.28;1.23;;;10.70;99.90;;;;;;7554354;19;20002;-71
2023/11/13 11:41:53;;;;;;;2.00;1.30;;;10.80;99.90;;;;;;7487340;19;20578;-71
2023/11/13 11:44:44;;;;;;;2.92;1.38;;;10.90;99.90;;;;;;7515040;19;21113;-71
2023/11/13 11:47:26;;;;;;;5.22;1.55;;;10.90;99.90;;;;;;7507946;19;20381;-72
2023/11/13 11:49:59;;;;;;;4.25;1.30;;;10.80;99.90;;;;;;7536156;19;21532;-71
2023/11/13 11:52:57;;;;;;;5.03;1.48;;;10.90;99.90;;;;;;7534405;19;20010;-71
2023/11/13 11:55:30;;;;;;;4.93;1.40;;;11.00;99.90;;;;;;7528871;19;20022;-71
2023/11/13 11:58:02;;;;;;;6.43;2.07;;;11.00;99.90;;;;;;7542254;19;20056;-71
2023/11/13 12:00:35;;;;;;;2.80;1.02;;;10.90;99.90;;;;;;7532175;19;20010;-71
2023/11/13 12:03:08;;;;;;;3.58;1.65;;;11.00;99.90;;;;;;7543929;19;20219;-71
2023/11/13 12:05:41;;;;;;;2.65;1.30;;;11.10;99.90;;;;;;7506740;19;20025;-72
2023/11/13 12:08:13;;;;;;;2.90;1.85;;;11.10;99.90;;;;;;7524202;19;20014;-72
2023/11/13 12:10:45;;;;;;;3.08;1.83;;;11.10;99.90;;;;;;7500889;19;20029;-71
2023/11/13 12:13:19;;;;;;;5.07;2.00;;;11.10;99.90;;;;;;7515875;19;20430;-71
2023/11/13 12:15:54;;;;;;;5.55;2.20;;;11.10;99.90;;;;;;7520742;19;20110;-71
2023/11/13 12:18:29;;;;;;;4.70;1.70;;;11.10;99.90;;;;;;7492829;19;20011;-73
2023/11/13 12:21:01;;;;;;;5.13;2.47;;;11.00;99.90;;;;;;7500603;19;20019;-73
2023/11/13 12:23:33;;;;;;;5.25;1.98;;;11.10;99.90;;;;;;7505715;19;20010;-73
2023/11/13 12:26:10;;;;;;;6.97;2.50;;;11.10;99.90;;;;;;7521097;19;20639;-73
2023/11/13 12:28:49;;;;;;;4.93;2.40;;;11.10;99.90;;;;;;7512251;19;20013;-73
2023/11/13 12:31:23;;;;;;;6.13;2.40;;;11.20;99.90;;;;;;7499965;19;20018;-73
2023/11/13 12:33:58;;;;;;;7.15;2.88;;;11.20;99.90;;;;;;7502944;19;20003;-71
2023/11/13 12:36:32;;;;;;;2.97;2.15;;;11.20;99.90;;;;;;7486544;19;20014;-71
2023/11/13 12:39:07;;;;;;;5.68;1.88;;;11.30;99.90;;;;;;7500268;19;20021;-72
2023/11/13 12:41:40;;;;;;;6.40;2.38;;;11.30;99.90;;;;;;7459066;19;20016;-71
2023/11/13 12:44:17;;;;;;;3.80;2.10;;;11.40;99.90;;;;;;7451555;19;20022;-71
2023/11/13 12:46:53;;;;;;;2.33;1.83;;;11.40;99.90;;;;;;7501510;19;20518;-71
2023/11/13 12:49:25;;;;;;;5.75;2.33;;;11.50;99.90;;;;;;7521926;19;20014;-71
2023/11/13 12:52:01;;;;;;;7.85;2.08;;;11.40;99.90;;;;;;7534450;19;20444;-71
2023/11/13 12:54:36;;;;;;;7.82;2.20;;;11.50;99.90;;;;;;7494312;19;20010;-72
2023/11/13 12:57:15;;;;;;;4.65;1.77;;;11.50;99.90;;;;;;7464706;19;20021;-73
2023/11/13 12:59:52;;;;;;;3.80;1.90;;;11.50;99.90;;;;;;7499737;19;20011;-73
2023/11/13 13:02:24;;;;;;;2.73;2.00;;;11.60;99.90;;;;;;7474627;19;20054;-72
2023/11/13 13:04:56;;;;;;;4.00;2.28;;;11.70;99.90;;;;;;7481829;19;20023;-72
2023/11/13 13:07:33;;;;;;;5.57;2.00;;;11.60;99.90;;;;;;7490803;19;20022;-71
2023/11/13 13:10:11;;;;;;;8.38;2.60;;;11.40;99.90;;;;;;7435820;19;20022;-71
2023/11/13 13:12:48;;;;;;;7.30;2.25;;;11.30;99.90;;;;;;7488964;19;20014;-71
2023/11/13 13:15:21;;;;;;;3.67;2.20;;;11.30;99.90;;;;;;7491754;19;20010;-71
2023/11/13 13:17:54;;;;;;;;;;;11.30;99.90;;;;;;7494453;19;20011;-72
2023/11/13 13:20:30;;;;;;;6.50;2.20;;;11.30;99.90;;;;;;7496517;19;19927;-71
2023/11/13 13:23:03;;;;;;;8.00;2.78;;;11.30;99.90;;;;;;7493827;19;21216;-71
2023/11/13 13:25:36;;;;;;;7.85;2.80;;;11.30;99.90;;;;;;7471788;19;20025;-71